createdAt,value
2018-12-06T09:44:48.987Z,651.67
2018-12-06T09:47:18.755Z,369.33
2018-12-06T09:49:47.743Z,84.28
2018-12-06T09:52:16.850Z,492.63
2018-12-06T09:54:45.772Z,697.67
2018-12-06T09:57:14.741Z,527.75
2018-12-06T09:59:43.777Z,96.45
2018-12-06T10:02:12.786Z,184.18
2018-12-06T10:04:42.166Z,70.67
2018-12-06T10:07:11.188Z,71.77
2018-12-06T10:09:41.122Z,72.00
2018-12-06T10:12:10.696Z,56.30
2018-12-06T10:14:39.805Z,50.83
2018-12-06T10:17:08.797Z,53.52
2018-12-06T10:19:37.816Z,42.17
2018-12-06T10:22:06.904Z,42.60
2018-12-06T10:24:35.847Z,49.05
2018-12-06T10:27:04.922Z,60.80
2018-12-06T10:29:33.912Z,37.17
2018-12-06T10:32:03.058Z,39.75
2018-12-06T10:34:32.713Z,29.75
2018-12-06T10:37:01.704Z,22.80
2018-12-06T10:39:31.619Z,23.77
2018-12-06T10:42:00.823Z,24.57
2018-12-06T10:44:30.598Z,19.70
2018-12-06T10:46:59.961Z,14.60
2018-12-06T10:49:28.942Z,13.93
2018-12-06T10:51:57.944Z,10.65
2018-12-06T10:54:26.912Z,10.53
2018-12-06T10:56:55.879Z,16.90
2018-12-06T10:59:24.834Z,12.00
2018-12-06T11:01:59.011Z,10.20
2018-12-06T11:04:36.798Z,7.40
2018-12-06T11:07:06.363Z,7.05
2018-12-06T11:09:35.300Z,8.88
2018-12-06T11:12:04.551Z,11.00
2018-12-06T11:14:33.535Z,11.35
2018-12-06T11:17:02.601Z,10.03
2018-12-06T11:19:31.566Z,11.48
2018-12-06T11:22:01.026Z,16.32
2018-12-06T11:24:29.963Z,12.40
2018-12-06T11:26:58.910Z,15.90
2018-12-06T11:29:27.901Z,17.82
2018-12-06T11:31:56.990Z,17.02
2018-12-06T11:34:27.174Z,10.95
2018-12-06T11:36:56.135Z,8.65
2018-12-06T11:39:25.214Z,14.78
2018-12-06T11:41:54.255Z,10.15
2018-12-06T11:44:23.289Z,16.27
2018-12-06T11:46:52.366Z,21.48
2018-12-06T11:49:22.584Z,20.90
2018-12-06T11:51:52.459Z,8.98
2018-12-06T11:54:21.358Z,10.93
2018-12-06T11:56:50.506Z,8.55
2018-12-06T11:59:19.837Z,9.85
2018-12-06T12:01:48.726Z,10.23
2018-12-06T12:04:17.678Z,11.88
2018-12-06T12:06:46.674Z,7.58
2018-12-06T12:09:16.192Z,8.80
2018-12-06T12:11:45.495Z,10.05
2018-12-06T12:14:14.455Z,10.08
2018-12-06T12:16:43.450Z,16.25
2018-12-06T12:19:12.881Z,17.52
2018-12-06T12:21:41.944Z,18.37
2018-12-06T12:24:10.948Z,12.05
2018-12-06T12:26:39.975Z,16.90
2018-12-06T12:29:10.044Z,8.65
2018-12-06T12:31:39.037Z,12.33
2018-12-06T12:34:08.058Z,8.30
2018-12-06T12:36:37.162Z,6.65
2018-12-06T12:39:08.328Z,10.38
2018-12-06T12:41:37.402Z,10.15
2018-12-06T12:44:06.423Z,11.77
2018-12-06T12:46:35.631Z,6.65
2018-12-06T12:49:05.572Z,10.58
2018-12-06T12:51:35.266Z,7.90
2018-12-06T12:54:04.372Z,7.70
2018-12-06T12:56:33.348Z,6.72
2018-12-06T12:59:03.448Z,7.10
2018-12-06T13:01:33.074Z,6.67
2018-12-06T13:04:02.400Z,12.50
2018-12-06T13:06:32.787Z,8.85
2018-12-06T13:09:02.623Z,10.20
2018-12-06T13:11:32.862Z,10.80
2018-12-06T13:14:02.302Z,7.83
2018-12-06T13:16:31.524Z,8.70
2018-12-06T13:19:01.000Z,16.80
2018-12-06T13:21:30.213Z,10.10
2018-12-06T13:23:59.428Z,15.72
2018-12-06T13:26:29.552Z,20.40
2018-12-06T13:28:59.035Z,20.05
2018-12-06T13:31:29.175Z,15.32
2018-12-06T13:33:58.248Z,20.45
2018-12-06T13:36:28.238Z,26.00
2018-12-06T13:38:57.233Z,23.30
2018-12-06T13:41:27.235Z,25.97
2018-12-06T13:43:56.616Z,20.15
2018-12-06T13:46:27.021Z,22.25
2018-12-06T13:48:57.006Z,31.57
2018-12-06T13:51:26.042Z,31.77
2018-12-06T13:53:57.479Z,26.42
2018-12-06T13:56:26.440Z,29.00
2018-12-06T13:58:55.462Z,31.20
2018-12-06T14:01:24.600Z,29.23
2018-12-06T14:03:53.720Z,36.35
2018-12-06T14:06:22.642Z,38.50
2018-12-06T14:08:51.651Z,33.95
2018-12-06T14:11:20.606Z,34.55
2018-12-06T14:13:49.571Z,26.27
2018-12-06T14:16:18.584Z,38.63
2018-12-06T14:18:47.518Z,42.38
2018-12-06T14:21:16.486Z,51.48
2018-12-06T14:23:45.669Z,46.05
2018-12-06T14:26:14.676Z,53.42
2018-12-06T14:28:43.678Z,55.43
2018-12-06T14:31:12.668Z,46.80
2018-12-06T14:33:41.787Z,47.53
2018-12-06T14:36:10.832Z,45.58
2018-12-06T14:38:39.925Z,40.38
2018-12-06T14:41:08.950Z,51.63
2018-12-06T14:43:37.978Z,51.70
2018-12-06T14:46:06.974Z,55.52
2018-12-06T14:48:35.863Z,58.08
2018-12-06T14:51:04.838Z,67.97
2018-12-06T14:53:33.964Z,75.52
2018-12-06T14:56:03.203Z,63.73
2018-12-06T14:58:32.146Z,50.50
2018-12-06T15:01:01.120Z,57.70
2018-12-06T15:04:59.436Z,47.33
2018-12-06T15:07:28.490Z,53.53
2018-12-06T15:09:57.368Z,40.00
2018-12-06T15:12:26.278Z,47.23
2018-12-06T15:14:56.199Z,37.78
2018-12-06T15:17:25.926Z,30.60
2018-12-06T15:19:55.281Z,19.30
2018-12-06T15:22:24.402Z,12.55
2018-12-06T15:24:54.220Z,11.87
2018-12-06T15:27:23.585Z,17.67
2018-12-06T15:29:52.739Z,17.32
2018-12-06T15:32:21.757Z,13.20
2018-12-06T15:34:50.739Z,17.27
2018-12-06T15:37:19.658Z,15.97
2018-12-06T15:39:48.556Z,16.27
2018-12-06T15:42:17.553Z,19.77
2018-12-06T15:44:46.821Z,25.53
2018-12-06T15:47:16.157Z,27.30
2018-12-06T15:49:45.877Z,32.23
2018-12-06T15:52:14.777Z,30.32
2018-12-06T15:54:43.819Z,37.90
2018-12-06T15:57:13.242Z,61.92
2018-12-06T15:59:42.252Z,44.55
2018-12-06T16:02:11.280Z,51.67
2018-12-06T16:04:40.438Z,31.63
2018-12-06T16:07:09.503Z,24.57
2018-12-06T16:09:38.412Z,24.80
2018-12-06T16:12:07.453Z,27.20
2018-12-06T16:14:36.428Z,593.00
2018-12-06T16:17:05.432Z,665.13
2018-12-06T16:19:34.407Z,802.45
2018-12-06T16:22:03.266Z,237.77
2018-12-06T16:24:32.176Z,422.85
2018-12-06T16:27:01.156Z,761.65
2018-12-06T16:29:30.048Z,118.13
2018-12-06T16:31:59.138Z,36.73
2018-12-06T16:34:28.118Z,24.32
2018-12-06T16:36:57.029Z,20.40
2018-12-06T16:39:25.935Z,17.52
2018-12-06T16:41:55.142Z,17.87
2018-12-06T16:44:24.061Z,14.63
2018-12-06T16:46:52.967Z,18.05
2018-12-06T16:49:22.072Z,50.33
2018-12-06T16:51:51.431Z,27.13
2018-12-06T16:54:20.319Z,511.20
2018-12-06T16:56:49.307Z,569.27
2018-12-06T16:59:18.782Z,230.70
2018-12-06T17:01:47.781Z,611.87
2018-12-06T17:04:16.775Z,28.43
2018-12-06T17:06:45.696Z,15.27
2018-12-06T17:09:14.748Z,13.50
2018-12-06T17:11:43.984Z,26.63
2018-12-06T17:14:13.234Z,11.33
2018-12-06T17:16:42.254Z,8.67
2018-12-06T17:19:11.230Z,9.27
2018-12-06T17:21:40.770Z,14.57
2018-12-06T17:24:09.678Z,11.50
2018-12-06T17:26:38.688Z,12.77
2018-12-06T17:29:07.555Z,7.10
2018-12-06T17:31:36.425Z,10.03
2018-12-06T17:34:05.395Z,10.33
2018-12-06T17:36:34.345Z,11.60
2018-12-06T17:39:04.045Z,17.37
2018-12-06T17:41:33.063Z,17.87
2018-12-06T17:44:01.941Z,22.73
2018-12-06T17:46:30.922Z,26.87
2018-12-06T17:49:00.129Z,278.17
2018-12-06T17:51:29.026Z,159.03
2018-12-06T17:53:58.082Z,97.93
2018-12-06T17:56:27.032Z,681.83
2018-12-06T17:58:56.057Z,584.83
2018-12-06T18:01:28.367Z,978.60
2018-12-06T18:03:57.466Z,737.37
2018-12-06T18:06:26.347Z,1045.10
2018-12-06T18:08:55.314Z,968.67
2018-12-06T18:11:24.725Z,874.93
2018-12-06T18:13:53.603Z,862.07
2018-12-06T18:16:22.556Z,1056.77
2018-12-06T18:18:51.457Z,1169.13
2018-12-06T18:21:20.354Z,764.00
2018-12-06T18:23:49.320Z,1163.00
2018-12-06T18:26:18.264Z,1305.57
2018-12-06T18:28:47.160Z,962.13
2018-12-06T18:31:16.135Z,913.00
2018-12-06T18:33:45.050Z,1397.40
2018-12-06T18:36:14.158Z,1226.23
2018-12-06T18:38:43.194Z,1581.87
2018-12-06T18:41:12.119Z,1355.80
2018-12-06T18:43:40.998Z,1495.88
2018-12-06T18:46:09.979Z,1381.47
2018-12-06T18:48:38.842Z,1517.88
2018-12-06T18:51:07.743Z,1645.93
2018-12-06T18:53:37.071Z,1700.43
2018-12-06T18:56:06.150Z,1426.27
2018-12-06T18:58:35.040Z,1588.90
2018-12-06T19:01:04.054Z,1521.63
2018-12-06T19:03:33.391Z,1934.17
2018-12-06T19:06:02.273Z,1706.30
2018-12-06T19:08:31.239Z,1459.65
2018-12-06T19:11:00.348Z,1529.70
2018-12-06T19:13:29.508Z,1290.80
2018-12-06T19:15:58.506Z,1042.33
2018-12-06T19:18:27.358Z,644.23
2018-12-06T19:20:56.258Z,287.57
2018-12-06T19:23:31.287Z,118.17
2018-12-06T19:26:00.265Z,213.13
2018-12-06T19:28:29.165Z,477.10
2018-12-06T19:30:58.232Z,496.00
2018-12-06T19:33:27.175Z,1082.57
2018-12-06T19:35:56.131Z,171.90
2018-12-06T19:38:25.339Z,116.87
2018-12-06T19:40:54.544Z,333.73
2018-12-06T19:43:23.666Z,173.50
2018-12-06T19:45:52.670Z,67.50
2018-12-06T19:48:21.722Z,389.00
2018-12-06T19:52:19.767Z,997.80
2018-12-06T19:54:48.644Z,71.05
2018-12-06T19:57:17.594Z,103.23
2018-12-06T19:59:46.793Z,305.57
2018-12-06T20:02:16.054Z,345.63
2018-12-06T20:04:45.275Z,629.43
2018-12-06T20:07:14.270Z,706.80
2018-12-06T20:09:43.480Z,124.22
2018-12-06T20:12:12.435Z,473.52
2018-12-06T20:14:41.389Z,177.15
2018-12-06T20:17:10.296Z,43.20
2018-12-06T20:19:40.245Z,82.93
2018-12-06T20:22:09.886Z,304.93
2018-12-06T20:24:38.842Z,77.10
2018-12-06T20:27:19.970Z,73.25
2018-12-06T20:29:48.895Z,199.67
2018-12-06T20:32:17.841Z,76.00
2018-12-06T20:34:47.002Z,42.38
2018-12-06T20:37:15.891Z,70.22
2018-12-06T20:39:44.802Z,63.07
2018-12-06T20:42:13.746Z,54.53
2018-12-06T20:44:42.617Z,50.92
2018-12-06T20:47:23.780Z,50.50
2018-12-06T20:49:53.504Z,53.83
2018-12-06T20:52:22.454Z,47.83
2018-12-06T20:54:51.348Z,44.43
2018-12-06T20:57:20.322Z,31.33
2018-12-06T20:59:49.204Z,37.83
2018-12-06T21:02:18.070Z,37.27
2018-12-06T21:04:47.068Z,39.13
2018-12-06T21:07:15.930Z,47.60
2018-12-06T21:09:44.812Z,33.57
2018-12-06T21:12:13.802Z,33.55
2018-12-06T21:14:42.745Z,42.87
2018-12-06T21:17:11.606Z,41.20
2018-12-06T21:19:40.535Z,31.40
2018-12-06T21:22:10.146Z,39.93
2018-12-06T21:24:39.003Z,35.00
2018-12-06T21:27:07.944Z,31.83
2018-12-06T21:29:36.837Z,30.83
2018-12-06T21:32:05.699Z,29.77
2018-12-06T21:34:34.623Z,30.47
2018-12-06T21:37:03.490Z,31.43
2018-12-06T21:39:32.403Z,30.00
2018-12-06T21:42:01.380Z,30.47
2018-12-06T21:44:30.245Z,28.95
2018-12-06T21:46:59.131Z,29.10
2018-12-06T21:49:28.079Z,24.33
2018-12-06T21:51:56.935Z,25.83
2018-12-06T21:54:25.821Z,26.23
2018-12-06T21:56:54.762Z,27.07
2018-12-06T21:59:23.678Z,24.07
2018-12-06T22:02:09.627Z,23.90
2018-12-06T22:04:39.049Z,28.60
2018-12-06T22:07:07.989Z,21.80
2018-12-06T22:09:37.138Z,22.00
2018-12-06T22:12:05.991Z,9.43
2018-12-06T22:14:34.863Z,10.10
2018-12-06T22:17:03.830Z,5.07
2018-12-06T22:19:32.686Z,4.93
2018-12-06T22:22:01.588Z,5.70
2018-12-06T22:24:34.731Z,3.30
2018-12-06T22:27:03.598Z,3.70
2018-12-06T22:29:32.475Z,3.40
2018-12-06T22:32:01.403Z,12.60
2018-12-06T22:34:30.258Z,6.83
2018-12-06T22:36:59.148Z,7.27
2018-12-06T22:39:28.065Z,9.87
2018-12-06T22:41:56.918Z,9.53
2018-12-06T22:44:26.783Z,4.83
2018-12-06T22:46:56.432Z,7.33
2018-12-06T22:49:25.311Z,4.37
2018-12-06T22:51:54.227Z,5.23
2018-12-06T22:54:23.154Z,7.93
2018-12-06T22:56:52.038Z,13.47
2018-12-06T22:59:20.898Z,11.27
2018-12-06T23:01:49.941Z,9.67
2018-12-06T23:04:19.637Z,7.30
2018-12-06T23:06:48.494Z,9.10
2018-12-06T23:09:17.487Z,8.90
2018-12-06T23:11:46.381Z,9.27
2018-12-06T23:14:15.264Z,11.70
2018-12-06T23:16:44.521Z,13.30
2018-12-06T23:19:13.422Z,16.83
2018-12-06T23:21:42.270Z,9.17
2018-12-06T23:24:11.202Z,8.17
2018-12-06T23:26:40.135Z,15.50
2018-12-06T23:29:09.344Z,16.30
2018-12-06T23:31:38.257Z,14.67
2018-12-06T23:34:07.109Z,20.80
2018-12-06T23:36:36.011Z,19.20
2018-12-06T23:39:06.880Z,22.93
2018-12-06T23:41:35.818Z,16.27
2018-12-06T23:44:04.659Z,13.63
2018-12-06T23:46:33.602Z,6.20
2018-12-06T23:49:02.498Z,5.70
2018-12-06T23:51:37.348Z,2.30
2018-12-06T23:54:06.241Z,4.87
2018-12-06T23:56:35.094Z,7.83
2018-12-06T23:59:04.044Z,7.67
